Time;durP1;ratioP1;P1;durP2;ratioP2;P2;SDS_P1;SDS_P2;PMS_P1;PMS_P2;Temp;Humidity;BMP_temperature;BMP_pressure;BME280_temperature;BME280_humidity;BME280_pressure;Samples;Min_cycle;Max_cycle;Signal;HPM_P1;HPM_P2
2023/07/10 00:01:48;;;;;;;9.27;5.20;;;17.40;99.90;;;;;;8332526;28;20141;-81
2023/07/10 00:05:56;;;;;;;7.75;4.57;;;17.30;99.90;;;;;;8361905;28;20018;-80
2023/07/10 00:09:56;;;;;;;8.80;4.97;;;16.90;99.90;;;;;;8328882;28;20035;-80
2023/07/10 00:14:06;;;;;;;7.10;5.18;;;17.10;99.90;;;;;;8329098;28;20025;-80
2023/07/10 00:18:28;;;;;;;;;;;;;;;;;;;;;
2023/07/10 00:22:35;;;;;;;10.48;5.13;;;17.00;99.90;;;;;;8337603;28;20025;-81
2023/07/10 00:26:46;;;;;;;8.98;5.38;;;17.10;99.90;;;;;;8343808;28;20021;-81
2023/07/10 00:30:56;;;;;;;9.05;5.50;;;17.30;99.90;;;;;;8336160;28;20029;-82
2023/07/10 00:35:05;;;;;;;10.10;4.95;;;17.20;99.90;;;;;;8331041;28;20052;-80
2023/07/10 00:39:22;;;;;;;7.47;5.07;;;16.80;99.90;;;;;;8336530;28;20029;-78
2023/07/10 00:43:27;;;;;;;8.27;5.50;;;16.70;99.90;;;;;;8336350;28;20376;-80
2023/07/10 00:47:37;;;;;;;10.98;5.40;;;16.50;99.90;;;;;;8350520;28;20021;-80
2023/07/10 00:52:19;;;;;;;7.57;4.93;;;16.30;99.90;;;;;;8338113;28;20079;-80
2023/07/10 00:56:24;;;;;;;8.35;5.30;;;16.20;99.90;;;;;;8331086;28;20041;-82
2023/07/10 01:00:25;;;;;;;13.20;5.63;;;16.20;99.90;;;;;;8347587;28;20037;-83
2023/07/10 01:09:45;;;;;;;8.80;5.78;;;16.30;99.90;;;;;;8232615;28;20055;-83
2023/07/10 01:14:10;;;;;;;10.55;5.32;;;16.20;99.90;;;;;;8319105;28;20171;-84
2023/07/10 01:18:26;;;;;;;9.80;5.80;;;16.10;99.90;;;;;;8338365;28;20040;-83
2023/07/10 01:23:00;;;;;;;8.68;5.88;;;15.90;99.90;;;;;;8332179;28;20045;-84
2023/07/10 01:27:22;;;;;;;;;;;;;;;;;;;;;
2023/07/10 01:31:34;;;;;;;7.00;4.97;;;15.80;99.90;;;;;;8231126;28;20513;-83
2023/07/10 01:35:57;;;;;;;12.50;5.97;;;15.90;99.90;;;;;;8329085;23;20084;-84
2023/07/10 01:40:37;;;;;;;12.20;5.75;;;15.90;99.90;;;;;;8326721;28;20026;-83
2023/07/10 01:44:51;;;;;;;9.77;5.20;;;15.90;99.90;;;;;;8243843;28;20602;-83
2023/07/10 01:48:59;;;;;;;9.32;5.80;;;15.80;99.90;;;;;;8308856;28;20030;-83
2023/07/10 01:53:37;;;;;;;9.55;4.97;;;15.70;99.90;;;;;;8311660;28;20018;-83
2023/07/10 01:57:38;;;;;;;7.72;5.40;;;15.80;99.90;;;;;;8297446;28;20040;-83
2023/07/10 02:02:36;;;;;;;9.77;5.22;;;15.80;99.90;;;;;;8318831;28;20033;-83
2023/07/10 02:06:39;;;;;;;119.80;9.13;;;15.40;99.90;;;;;;8397601;23;20522;-84
2023/07/10 02:10:40;;;;;;;12.32;5.63;;;15.20;99.90;;;;;;8326647;28;20033;-83
2023/07/10 02:14:41;;;;;;;54.08;4.78;;;15.10;99.90;;;;;;8334406;28;20061;-83
2023/07/10 02:18:41;;;;;;;10.95;5.68;;;15.10;99.90;;;;;;8325164;28;20101;-83
2023/07/10 02:22:54;;;;;;;7.32;5.22;;;15.10;99.90;;;;;;8329580;28;20033;-84
2023/07/10 02:26:55;;;;;;;14.10;5.95;;;15.30;99.90;;;;;;8624729;23;20132;-84
2023/07/10 02:30:55;;;;;;;10.80;6.07;;;15.30;99.90;;;;;;8267751;28;20023;-84
2023/07/10 02:34:56;;;;;;;9.32;5.75;;;15.30;99.90;;;;;;8267782;28;20023;-84
2023/07/10 02:38:57;;;;;;;10.18;5.80;;;15.20;99.90;;;;;;8254597;28;20034;-83
2023/07/10 02:42:57;;;;;;;7.10;5.43;;;15.30;99.90;;;;;;8260945;28;20034;-83
2023/07/10 02:46:58;;;;;;;8.18;5.45;;;15.40;99.90;;;;;;8267146;28;20037;-83
2023/07/10 02:51:00;;;;;;;10.93;5.65;;;15.50;99.90;;;;;;8266262;28;20042;-83
2023/07/10 02:55:03;;;;;;;7.78;5.47;;;15.60;99.90;;;;;;8247899;28;20023;-84
2023/07/10 03:04:05;;;;;;;10.00;6.00;;;15.70;99.90;;;;;;8302110;23;20535;-84
2023/07/10 03:08:08;;;;;;;13.10;6.18;;;15.60;99.90;;;;;;8314905;28;20041;-83
2023/07/10 03:22:05;;;;;;;12.00;5.88;;;15.70;99.90;;;;;;8216697;28;20178;-83
2023/07/10 03:26:06;;;;;;;10.80;4.82;;;15.90;99.90;;;;;;8212276;28;20062;-83
2023/07/10 03:36:29;;;;;;;;;;;;;;;;;;;;;
2023/07/10 03:45:37;;;;;;;11.55;5.30;;;15.80;99.90;;;;;;8179616;23;20050;-83
2023/07/10 03:49:37;;;;;;;9.80;5.60;;;15.90;99.90;;;;;;8209016;28;20023;-83
2023/07/10 03:58:29;;;;;;;;;;;;;;;;;;;;;
2023/07/10 04:03:30;;;;;;;12.77;5.43;;;17.10;99.90;;;;;;8102920;29;20045;-84
2023/07/10 04:07:50;;;;;;;7.97;5.25;;;17.10;99.90;;;;;;7993793;29;20117;-83
2023/07/10 04:12:27;;;;;;;10.45;5.68;;;17.20;99.90;;;;;;7933307;29;20535;-83
2023/07/10 04:16:29;;;;;;;7.90;4.95;;;17.50;99.90;;;;;;7921181;29;20088;-83
2023/07/10 04:20:42;;;;;;;7.65;5.07;;;17.50;99.90;;;;;;7946283;29;20129;-83
2023/07/10 04:24:45;;;;;;;8.35;5.90;;;17.30;99.90;;;;;;8031044;29;20033;-83
2023/07/10 04:28:48;;;;;;;9.73;5.65;;;17.50;99.90;;;;;;8062583;29;20090;-83
2023/07/10 04:32:49;;;;;;;10.75;5.45;;;17.70;99.90;;;;;;8051372;29;20065;-85
2023/07/10 04:36:49;;;;;;;8.10;5.85;;;17.40;99.90;;;;;;8186269;28;20536;-83
2023/07/10 04:40:58;;;;;;;7.80;5.85;;;17.50;99.90;;;;;;8183223;28;20114;-85
2023/07/10 04:44:59;;;;;;;10.57;5.68;;;17.60;99.90;;;;;;8197365;28;20161;-88
2023/07/10 04:49:05;;;;;;;7.72;5.07;;;17.50;99.90;;;;;;8155140;29;20086;-87
2023/07/10 04:53:06;;;;;;;10.40;5.60;;;17.20;99.90;;;;;;8174475;29;20522;-87
2023/07/10 04:57:06;;;;;;;9.80;5.35;;;17.30;99.90;;;;;;8255866;23;20109;-82
2023/07/10 05:01:07;;;;;;;9.02;5.47;;;17.40;99.90;;;;;;8284655;28;20048;-81
2023/07/10 05:05:08;;;;;;;9.13;5.50;;;17.50;99.90;;;;;;8272447;28;20400;-82
2023/07/10 05:09:08;;;;;;;7.40;5.35;;;17.50;99.90;;;;;;8261670;28;20019;-82
2023/07/10 05:13:09;;;;;;;7.95;5.72;;;17.50;99.90;;;;;;8236583;28;20034;-82
2023/07/10 05:17:09;;;;;;;9.70;5.13;;;17.70;99.90;;;;;;8256881;28;20030;-81
2023/07/10 05:21:10;;;;;;;10.10;5.45;;;17.70;99.90;;;;;;8258136;28;20073;-82
2023/07/10 05:25:10;;;;;;;10.68;5.88;;;17.80;99.90;;;;;;8258294;28;20031;-82
2023/07/10 05:29:11;;;;;;;9.48;5.50;;;18.30;99.90;;;;;;8240812;28;20283;-83
2023/07/10 05:33:11;;;;;;;15.65;5.32;;;18.40;99.90;;;;;;8240219;28;20037;-83
2023/07/10 05:37:12;;;;;;;8.88;4.82;;;18.50;99.90;;;;;;8245421;28;20067;-82
2023/07/10 05:41:13;;;;;;;7.93;5.38;;;18.70;99.90;;;;;;8262381;28;20041;-81
2023/07/10 05:45:13;;;;;;;9.70;5.50;;;18.60;99.90;;;;;;8257543;28;20464;-81
2023/07/10 05:49:14;;;;;;;7.90;5.53;;;18.40;99.90;;;;;;8240970;28;20154;-82
2023/07/10 05:53:15;;;;;;;7.40;4.90;;;18.50;99.90;;;;;;8240850;28;20153;-82
2023/07/10 05:57:15;;;;;;;9.02;4.63;;;18.80;99.90;;;;;;8243355;28;20104;-81
2023/07/10 06:01:16;;;;;;;7.13;4.28;;;19.10;99.90;;;;;;8243793;28;20372;-81
2023/07/10 06:05:17;;;;;;;7.20;4.50;;;19.70;99.90;;;;;;8261320;28;20076;-82
2023/07/10 06:09:17;;;;;;;9.63;4.68;;;19.90;99.90;;;;;;8237565;28;20031;-82
2023/07/10 06:13:18;;;;;;;11.57;4.38;;;19.90;99.90;;;;;;8241577;28;20022;-83
2023/07/10 06:17:19;;;;;;;6.53;4.40;;;19.50;99.90;;;;;;8262266;28;20034;-82
2023/07/10 06:21:19;;;;;;;5.22;4.38;;;19.40;99.90;;;;;;8259002;28;20022;-82
2023/07/10 06:25:20;;;;;;;12.15;5.00;;;19.20;99.90;;;;;;8255398;28;20041;-84
2023/07/10 06:29:20;;;;;;;11.30;5.28;;;18.90;99.90;;;;;;8251793;28;20064;-84
2023/07/10 06:33:21;;;;;;;7.55;5.00;;;18.80;99.90;;;;;;8260725;28;20643;-80
2023/07/10 06:37:22;;;;;;;8.55;5.03;;;18.70;99.90;;;;;;8235742;28;20451;-80
2023/07/10 06:41:22;;;;;;;10.02;5.25;;;18.80;99.90;;;;;;8226391;28;20477;-80
2023/07/10 06:45:23;;;;;;;9.55;4.82;;;18.90;99.90;;;;;;8238648;28;20424;-80
2023/07/10 06:49:23;;;;;;;11.20;5.78;;;19.00;99.90;;;;;;8238206;28;20033;-80
2023/07/10 06:53:24;;;;;;;16.85;5.43;;;19.10;99.90;;;;;;8255931;28;20038;-80
2023/07/10 07:12:55;;;;;;;9.65;3.90;;;18.60;99.90;;;;;;8247915;28;20053;-82
2023/07/10 07:16:56;;;;;;;6.18;3.95;;;18.50;99.90;;;;;;8246121;28;20029;-83
2023/07/10 07:20:56;;;;;;;12.85;6.68;;;18.30;99.90;;;;;;8235276;28;20030;-83
2023/07/10 07:24:57;;;;;;;15.52;6.93;;;18.20;99.90;;;;;;8235377;28;20203;-84
2023/07/10 07:28:57;;;;;;;15.02;7.35;;;18.20;99.90;;;;;;8244438;28;20511;-82
2023/07/10 07:32:59;;;;;;;17.00;8.43;;;18.40;99.90;;;;;;8236562;28;20022;-84
2023/07/10 07:36:59;;;;;;;12.73;7.55;;;18.20;99.90;;;;;;8244253;28;20101;-83
2023/07/10 07:41:00;;;;;;;16.88;8.27;;;18.00;99.90;;;;;;8249034;28;20472;-82
2023/07/10 07:45:01;;;;;;;17.77;8.18;;;18.00;99.90;;;;;;8248124;28;20026;-82
2023/07/10 07:49:01;;;;;;;11.50;7.97;;;18.10;99.90;;;;;;8246307;28;20030;-81
2023/07/10 07:53:02;;;;;;;12.73;8.52;;;18.00;99.90;;;;;;8245843;28;20023;-81
2023/07/10 07:57:02;;;;;;;12.75;8.38;;;18.10;99.90;;;;;;8255412;28;20038;-82
2023/07/10 08:01:03;;;;;;;12.63;8.18;;;18.10;99.90;;;;;;8245546;28;20416;-81
2023/07/10 08:05:05;;;;;;;15.02;8.80;;;18.50;99.90;;;;;;8253656;28;20554;-82
2023/07/10 08:09:05;;;;;;;14.05;7.78;;;18.70;99.90;;;;;;8235208;28;20031;-81
2023/07/10 08:13:08;;;;;;;12.82;8.30;;;18.80;99.90;;;;;;8239418;28;20031;-81
2023/07/10 08:17:08;;;;;;;13.13;7.97;;;19.00;99.90;;;;;;8245475;28;20416;-81
2023/07/10 08:21:12;;;;;;;12.40;8.45;;;19.10;99.90;;;;;;8245572;28;20108;-82
2023/07/10 08:25:13;;;;;;;14.05;7.95;;;19.30;99.90;;;;;;8252976;28;20015;-83
2023/07/10 08:29:31;;;;;;;12.32;7.40;;;19.40;99.90;;;;;;8246242;28;20030;-82
2023/07/10 08:33:32;;;;;;;11.32;6.88;;;19.70;99.90;;;;;;8237781;28;20026;-82
2023/07/10 08:37:37;;;;;;;12.70;7.97;;;20.30;99.90;;;;;;8248627;28;20030;-82
2023/07/10 08:41:37;;;;;;;10.35;7.45;;;20.40;99.90;;;;;;8244000;28;20030;-82
2023/07/10 08:45:39;;;;;;;12.93;6.30;;;20.80;99.90;;;;;;8246266;28;20023;-82
2023/07/10 08:49:43;;;;;;;12.93;6.25;;;21.80;99.90;;;;;;8230191;28;20018;-82
2023/07/10 08:54:02;;;;;;;12.00;7.63;;;22.20;99.90;;;;;;8227928;28;20619;-83
2023/07/10 08:58:03;;;;;;;10.98;6.15;;;23.60;99.90;;;;;;8250578;28;20205;-83
2023/07/10 09:02:17;;;;;;;10.23;5.95;;;25.00;99.90;;;;;;8256810;28;20030;-83
2023/07/10 09:06:37;;;;;;;11.65;5.82;;;25.20;99.90;;;;;;8242073;28;20054;-82
2023/07/10 09:10:51;;;;;;;10.43;5.63;;;25.80;99.90;;;;;;8249923;28;20019;-83
2023/07/10 09:15:00;;;;;;;7.55;4.55;;;26.30;99.90;;;;;;8240987;28;20027;-82
2023/07/10 09:19:06;;;;;;;6.70;4.50;;;26.40;99.90;;;;;;8256985;28;20026;-82
2023/07/10 09:23:31;;;;;;;7.15;4.90;;;26.30;99.90;;;;;;8249059;28;20022;-83
2023/07/10 09:27:31;;;;;;;7.25;4.53;;;26.70;99.90;;;;;;8259092;28;20123;-83
2023/07/10 09:32:00;;;;;;;9.15;5.15;;;27.40;99.90;;;;;;8253934;28;20019;-81
2023/07/10 09:36:01;;;;;;;6.47;4.70;;;27.80;99.90;;;;;;8266481;28;20030;-82
2023/07/10 09:40:43;;;;;;;6.30;4.53;;;27.70;99.90;;;;;;8249545;28;20538;-82
2023/07/10 09:44:49;;;;;;;8.25;5.15;;;28.30;99.90;;;;;;8256368;28;20022;-82
2023/07/10 09:48:53;;;;;;;8.05;4.93;;;28.20;99.90;;;;;;8256303;28;20046;-81
2023/07/10 09:52:55;;;;;;;7.97;4.63;;;28.20;99.90;;;;;;8258675;28;20042;-80
2023/07/10 09:56:56;;;;;;;5.60;4.18;;;28.30;99.90;;;;;;8275695;28;20041;-81
2023/07/10 10:01:01;;;;;;;5.75;3.85;;;29.00;99.90;;;;;;8273300;28;20038;-80
2023/07/10 10:05:10;;;;;;;7.00;4.47;;;28.80;99.90;;;;;;8287655;28;20076;-82
2023/07/10 10:09:22;;;;;;;6.73;4.77;;;28.60;99.90;;;;;;8263827;28;20080;-81
2023/07/10 10:13:34;;;;;;;8.70;5.00;;;28.70;99.90;;;;;;8275702;28;20165;-81
2023/07/10 10:17:40;;;;;;;6.22;4.45;;;28.70;99.90;;;;;;8272314;28;20046;-81
2023/07/10 10:21:40;;;;;;;5.30;3.85;;;29.30;99.90;;;;;;8281183;28;20041;-79
2023/07/10 10:25:45;;;;;;;5.22;4.07;;;29.50;99.90;;;;;;8289777;28;20484;-81
2023/07/10 10:29:59;;;;;;;6.70;4.40;;;29.70;99.90;;;;;;8279459;28;20109;-81
2023/07/10 10:34:21;;;;;;;8.15;4.82;;;30.00;99.90;;;;;;8292645;28;20028;-81
2023/07/10 10:38:26;;;;;;;8.02;4.95;;;30.40;99.90;;;;;;8266386;28;20030;-81
2023/07/10 10:42:37;;;;;;;6.93;4.18;;;30.10;99.90;;;;;;8269719;28;20041;-81
2023/07/10 10:47:01;;;;;;;37.30;6.28;;;29.90;99.90;;;;;;8299160;28;20403;-81
2023/07/10 10:51:21;;;;;;;7.35;4.97;;;30.20;99.90;;;;;;8294917;28;20026;-81
2023/07/10 10:55:46;;;;;;;8.87;5.50;;;31.00;99.90;;;;;;8273814;28;20032;-82
2023/07/10 11:00:05;;;;;;;9.35;5.43;;;32.10;99.90;;;;;;8279557;28;20044;-80
2023/07/10 11:04:31;;;;;;;6.72;5.22;;;32.30;99.90;;;;;;8287709;28;20057;-80
2023/07/10 11:08:43;;;;;;;7.80;5.05;;;31.30;99.90;;;;;;8289439;28;20034;-79
2023/07/10 11:12:44;;;;;;;7.65;5.25;;;31.70;99.90;;;;;;8262250;28;20026;-81
2023/07/10 11:16:45;;;;;;;7.65;5.47;;;32.90;99.90;;;;;;8268553;28;20573;-80
2023/07/10 11:20:46;;;;;;;6.82;5.15;;;32.90;99.90;;;;;;8284679;28;20021;-78
2023/07/10 11:24:49;;;;;;;7.63;5.75;;;32.20;99.90;;;;;;8292835;28;20018;-79
2023/07/10 11:28:54;;;;;;;8.32;5.47;;;31.10;99.90;;;;;;8278693;28;20048;-79
2023/07/10 11:33:05;;;;;;;10.07;5.95;;;30.30;99.90;;;;;;8274178;28;20109;-79
2023/07/10 11:37:51;;;;;;;11.32;5.55;;;29.80;99.90;;;;;;8290977;28;20041;-79
2023/07/10 11:41:51;;;;;;;11.23;6.15;;;29.70;99.90;;;;;;8252613;28;20030;-79
2023/07/10 11:46:02;;;;;;;7.90;5.38;;;30.10;99.90;;;;;;8262684;28;20576;-78
2023/07/10 11:50:03;;;;;;;6.57;5.30;;;31.80;99.90;;;;;;8278306;28;20491;-79
2023/07/10 11:54:13;;;;;;;105.82;10.60;;;33.60;99.90;;;;;;8276785;28;20037;-80
2023/07/10 11:58:30;;;;;;;10.17;5.30;;;32.90;99.90;;;;;;8266186;28;20168;-78
2023/07/10 12:02:37;;;;;;;127.15;16.00;;;33.00;99.90;;;;;;8274414;28;20113;-81
2023/07/10 12:06:43;;;;;;;8.25;4.60;;;33.90;99.90;;;;;;8266541;28;20030;-81
2023/07/10 12:10:47;;;;;;;8.30;4.75;;;35.60;96.90;;;;;;8283509;28;20399;-79
2023/07/10 12:14:52;;;;;;;7.35;4.43;;;34.60;99.90;;;;;;8290816;28;20061;-80
2023/07/10 12:18:52;;;;;;;6.53;5.18;;;35.50;97.60;;;;;;8265118;28;20029;-78
2023/07/10 12:22:55;;;;;;;6.68;4.55;;;35.90;94.20;;;;;;8278763;28;20391;-79
2023/07/10 12:26:58;;;;;;;7.22;4.32;;;36.30;93.10;;;;;;8271721;28;20026;-78
2023/07/10 12:30:59;;;;;;;6.45;4.15;;;37.20;90.60;;;;;;8266580;28;20096;-79
2023/07/10 12:35:01;;;;;;;7.00;4.32;;;37.10;84.60;;;;;;8286616;28;20026;-79
2023/07/10 12:39:05;;;;;;;7.93;4.30;;;37.00;90.90;;;;;;8284897;28;20018;-79
2023/07/10 12:43:19;;;;;;;4.38;3.92;;;37.60;86.10;;;;;;8286934;28;20508;-79
2023/07/10 12:47:19;;;;;;;5.50;3.88;;;37.30;85.10;;;;;;8264433;28;20022;-79
2023/07/10 12:51:29;;;;;;;5.50;3.75;;;36.70;82.90;;;;;;8290341;28;20071;-81
2023/07/10 12:55:32;;;;;;;5.30;3.88;;;36.90;84.00;;;;;;8250597;28;20039;-79
2023/07/10 12:59:35;;;;;;;4.38;3.67;;;38.00;81.70;;;;;;8239848;28;20054;-80
2023/07/10 13:03:36;;;;;;;6.10;3.80;;;38.40;71.70;;;;;;8238316;28;20034;-78
2023/07/10 13:07:39;;;;;;;7.43;4.15;;;38.10;67.30;;;;;;8245720;28;20027;-79
2023/07/10 13:11:43;;;;;;;5.07;3.88;;;38.60;69.70;;;;;;8256891;28;20038;-80
2023/07/10 13:15:45;;;;;;;5.75;4.32;;;38.60;68.30;;;;;;8243496;28;20054;-80
2023/07/10 13:19:46;;;;;;;5.68;4.03;;;38.00;69.30;;;;;;8225379;28;20027;-80
2023/07/10 13:23:47;;;;;;;3.92;3.38;;;37.50;73.70;;;;;;8253500;28;20177;-79
2023/07/10 13:27:48;;;;;;;7.05;3.78;;;38.20;69.80;;;;;;8228970;28;20046;-80
2023/07/10 13:31:49;;;;;;;4.63;3.90;;;39.60;60.90;;;;;;8237451;28;20042;-80
2023/07/10 13:35:53;;;;;;;6.43;3.92;;;40.10;60.50;;;;;;8239193;28;20034;-80
2023/07/10 13:39:54;;;;;;;5.07;3.80;;;40.40;59.70;;;;;;8254403;28;20503;-80
2023/07/10 13:43:55;;;;;;;5.55;3.78;;;40.90;55.30;;;;;;8259424;28;20026;-82
2023/07/10 13:47:56;;;;;;;5.70;4.00;;;41.00;57.30;;;;;;8241909;28;20030;-80
2023/07/10 13:51:56;;;;;;;5.45;4.35;;;40.60;57.90;;;;;;8260641;28;20025;-80
2023/07/10 13:55:57;;;;;;;7.38;3.83;;;39.00;59.70;;;;;;8278660;28;20038;-81
2023/07/10 14:00:00;;;;;;;7.25;4.25;;;37.40;60.30;;;;;;8286358;28;20025;-80
2023/07/10 14:04:00;;;;;;;5.45;4.32;;;37.80;59.50;;;;;;8288936;28;20022;-79
2023/07/10 14:08:04;;;;;;;4.72;3.83;;;38.20;60.60;;;;;;8266526;28;20085;-81
2023/07/10 14:12:14;;;;;;;6.38;4.03;;;38.10;61.80;;;;;;8276296;28;20152;-79
2023/07/10 14:16:31;;;;;;;5.75;4.22;;;37.50;63.60;;;;;;8293499;28;20022;-79
2023/07/10 14:20:31;;;;;;;5.78;4.10;;;38.10;60.50;;;;;;8282685;28;20030;-80
2023/07/10 14:24:32;;;;;;;6.22;4.55;;;38.50;62.40;;;;;;8289053;28;20030;-80
2023/07/10 14:28:32;;;;;;;7.10;4.60;;;37.60;62.50;;;;;;8270827;28;20018;-79
2023/07/10 14:32:33;;;;;;;6.03;4.40;;;37.50;65.70;;;;;;8268993;28;20049;-79
2023/07/10 14:36:33;;;;;;;6.15;4.30;;;37.50;62.40;;;;;;8272887;28;20026;-80
2023/07/10 14:40:37;;;;;;;7.00;4.43;;;36.40;64.20;;;;;;8277074;28;20109;-80
2023/07/10 14:44:37;;;;;;;5.10;4.32;;;34.90;69.10;;;;;;8288857;28;20032;-80
2023/07/10 14:48:38;;;;;;;5.93;4.32;;;33.20;71.40;;;;;;8295440;28;20018;-79
2023/07/10 14:52:41;;;;;;;8.05;4.10;;;32.70;77.20;;;;;;8288083;28;20042;-78
2023/07/10 14:56:43;;;;;;;6.22;4.70;;;34.10;73.00;;;;;;8268816;28;20487;-78
2023/07/10 15:00:44;;;;;;;7.25;4.70;;;34.60;70.00;;;;;;8292148;28;20439;-79
2023/07/10 15:04:45;;;;;;;5.80;4.28;;;35.00;73.50;;;;;;8277142;28;20067;-78
2023/07/10 15:08:49;;;;;;;4.88;4.20;;;35.40;68.80;;;;;;8295202;28;20390;-78
2023/07/10 15:12:50;;;;;;;6.32;4.43;;;35.30;68.80;;;;;;8273123;28;20021;-80
2023/07/10 15:16:50;;;;;;;6.95;4.28;;;35.40;68.90;;;;;;8293920;28;20033;-78
2023/07/10 15:20:52;;;;;;;7.90;4.28;;;35.20;70.40;;;;;;8287029;28;20026;-78
2023/07/10 15:24:52;;;;;;;6.50;4.43;;;35.20;67.00;;;;;;8282385;28;20439;-79
2023/07/10 15:28:53;;;;;;;5.95;4.47;;;35.10;68.70;;;;;;8289320;28;20025;-79
2023/07/10 15:32:56;;;;;;;6.78;4.72;;;36.20;69.30;;;;;;8286139;28;20486;-78
2023/07/10 15:36:56;;;;;;;6.20;4.05;;;36.40;65.20;;;;;;8291713;28;20566;-78
2023/07/10 15:41:00;;;;;;;10.50;4.10;;;36.20;67.80;;;;;;8285589;28;20041;-80
2023/07/10 15:45:01;;;;;;;10.85;4.63;;;35.80;65.30;;;;;;8270790;28;20106;-78
2023/07/10 15:49:05;;;;;;;5.70;4.13;;;34.80;68.70;;;;;;8281559;28;20022;-80
2023/07/10 15:53:13;;;;;;;5.78;4.80;;;33.20;77.00;;;;;;8284635;28;20315;-79
2023/07/10 15:57:14;;;;;;;6.88;4.68;;;32.70;81.80;;;;;;8276573;28;20038;-78
2023/07/10 16:01:18;;;;;;;6.18;4.85;;;32.20;77.10;;;;;;8258956;28;20031;-78
2023/07/10 16:05:22;;;;;;;7.47;4.75;;;31.60;80.20;;;;;;8261405;28;20025;-78
2023/07/10 16:09:22;;;;;;;9.05;5.63;;;31.30;84.70;;;;;;8273016;28;20014;-78
2023/07/10 16:13:25;;;;;;;7.13;4.93;;;31.30;86.60;;;;;;8268762;28;20041;-78
2023/07/10 16:17:26;;;;;;;8.35;4.97;;;31.10;88.90;;;;;;8265169;28;20109;-78
2023/07/10 16:21:26;;;;;;;7.60;4.03;;;31.00;83.50;;;;;;8275465;28;20061;-78
2023/07/10 16:25:27;;;;;;;6.97;4.70;;;31.10;82.70;;;;;;8279305;28;20147;-78
2023/07/10 16:29:27;;;;;;;9.10;5.32;;;31.10;85.90;;;;;;8286258;28;20030;-78
2023/07/10 16:33:30;;;;;;;9.98;5.15;;;31.30;87.90;;;;;;8286200;28;20096;-80
2023/07/10 16:37:30;;;;;;;5.45;4.22;;;31.40;89.10;;;;;;8271989;28;20076;-79
2023/07/10 16:41:31;;;;;;;7.35;5.18;;;31.30;82.60;;;;;;8280250;28;20385;-77
2023/07/10 16:45:32;;;;;;;8.80;4.88;;;30.80;85.40;;;;;;8283980;28;20049;-77
2023/07/10 16:49:33;;;;;;;5.60;4.57;;;30.60;86.50;;;;;;8256627;28;20026;-77
2023/07/10 16:53:39;;;;;;;7.32;4.57;;;30.40;87.40;;;;;;8262607;28;20037;-77
2023/07/10 16:57:39;;;;;;;7.93;4.57;;;30.30;85.50;;;;;;8226552;28;20047;-78
2023/07/10 17:01:41;;;;;;;4.78;4.28;;;30.10;87.00;;;;;;8253098;28;20404;-78
2023/07/10 17:05:42;;;;;;;6.90;4.70;;;30.00;83.30;;;;;;8223536;28;20015;-78
2023/07/10 17:09:43;;;;;;;8.20;4.78;;;29.80;85.20;;;;;;8247014;28;20031;-79
2023/07/10 17:13:43;;;;;;;4.85;3.90;;;29.70;87.30;;;;;;8244226;28;20089;-79
2023/07/10 17:17:44;;;;;;;7.15;4.43;;;29.40;87.40;;;;;;8230379;28;20023;-79
2023/07/10 17:21:44;;;;;;;5.72;4.32;;;29.10;86.60;;;;;;8247784;28;20098;-79
2023/07/10 17:25:46;;;;;;;6.85;4.15;;;29.10;82.80;;;;;;8240519;28;20026;-78
2023/07/10 17:29:47;;;;;;;6.53;5.00;;;29.00;84.50;;;;;;8232208;28;20047;-79
2023/07/10 17:33:49;;;;;;;5.95;3.97;;;28.80;85.40;;;;;;8245118;28;20102;-80
2023/07/10 17:37:52;;;;;;;7.50;4.47;;;28.70;90.40;;;;;;8247644;28;20053;-81
2023/07/10 17:41:53;;;;;;;6.90;4.65;;;28.40;90.70;;;;;;8224358;28;20420;-80
2023/07/10 17:45:54;;;;;;;5.43;4.50;;;28.10;91.20;;;;;;8244954;28;20015;-80
2023/07/10 17:49:56;;;;;;;7.43;4.63;;;28.10;93.80;;;;;;8252090;28;20027;-80
2023/07/10 17:53:58;;;;;;;6.65;4.40;;;27.90;91.60;;;;;;8241274;28;20045;-80
2023/07/10 17:58:12;;;;;;;5.97;5.00;;;27.70;91.40;;;;;;8250395;28;20026;-79
2023/07/10 18:02:22;;;;;;;6.82;4.40;;;27.60;93.40;;;;;;8239884;28;20440;-80
2023/07/10 18:06:23;;;;;;;7.75;4.60;;;27.40;93.80;;;;;;8255168;28;20031;-79
2023/07/10 18:10:25;;;;;;;6.60;4.43;;;27.20;92.60;;;;;;8246352;28;20034;-80
2023/07/10 18:14:26;;;;;;;6.93;4.20;;;27.10;92.20;;;;;;8255141;28;20638;-79
2023/07/10 18:18:26;;;;;;;8.45;4.75;;;27.00;93.30;;;;;;8236152;28;20030;-79
2023/07/10 18:22:27;;;;;;;7.35;4.55;;;26.80;93.30;;;;;;8248456;28;20448;-80
2023/07/10 18:26:28;;;;;;;6.65;4.90;;;26.40;94.60;;;;;;8248301;28;20054;-80
2023/07/10 18:30:28;;;;;;;6.65;4.45;;;26.10;96.90;;;;;;8236570;28;20029;-81
2023/07/10 18:34:29;;;;;;;8.38;4.70;;;25.70;98.20;;;;;;8259218;28;20392;-80
2023/07/10 18:38:29;;;;;;;8.30;5.40;;;25.60;99.00;;;;;;8236763;28;20034;-80
2023/07/10 18:42:30;;;;;;;8.05;5.15;;;25.60;99.90;;;;;;8244379;28;20122;-80
2023/07/10 18:46:31;;;;;;;8.48;5.13;;;25.40;99.90;;;;;;8233542;28;20022;-80
2023/07/10 18:50:31;;;;;;;7.35;5.28;;;25.50;99.90;;;;;;8237042;28;20019;-80
2023/07/10 18:54:32;;;;;;;7.85;5.22;;;25.20;99.90;;;;;;8247867;28;20084;-80
2023/07/10 18:58:32;;;;;;;7.35;5.65;;;25.10;99.90;;;;;;8272816;28;20054;-79
2023/07/10 19:02:33;;;;;;;8.93;5.63;;;25.10;99.90;;;;;;8261246;28;20032;-80
2023/07/10 19:06:38;;;;;;;6.65;5.80;;;25.10;99.90;;;;;;8288419;28;20048;-80
2023/07/10 19:10:38;;;;;;;8.32;5.80;;;24.80;99.90;;;;;;8276034;28;20019;-80
2023/07/10 19:14:39;;;;;;;8.73;5.57;;;24.30;99.90;;;;;;8277912;28;20106;-80
2023/07/10 19:18:40;;;;;;;9.52;5.57;;;23.70;99.90;;;;;;8268809;28;20496;-80
2023/07/10 19:22:40;;;;;;;8.07;5.65;;;23.30;99.90;;;;;;8274216;28;20023;-80
2023/07/10 19:26:41;;;;;;;7.00;6.13;;;23.20;99.90;;;;;;8248671;28;20011;-79
2023/07/10 19:31:01;;;;;;;10.25;6.28;;;23.10;99.90;;;;;;8264996;28;20432;-80
2023/07/10 19:35:03;;;;;;;8.75;6.28;;;22.80;99.90;;;;;;8274519;28;20026;-80
2023/07/10 19:39:20;;;;;;;11.70;6.50;;;22.40;99.90;;;;;;8280135;28;20381;-80
2023/07/10 19:43:22;;;;;;;13.50;6.43;;;22.20;99.90;;;;;;8255824;28;20018;-79
2023/07/10 19:47:22;;;;;;;8.63;6.25;;;22.10;99.90;;;;;;8270119;28;20112;-79
2023/07/10 19:51:23;;;;;;;13.18;6.18;;;21.90;99.90;;;;;;8274895;28;20022;-80
2023/07/10 19:55:23;;;;;;;8.88;5.97;;;21.80;99.90;;;;;;8266834;28;20034;-80
2023/07/10 19:59:24;;;;;;;10.60;6.13;;;21.70;99.90;;;;;;8231251;28;20038;-80
2023/07/10 20:03:32;;;;;;;8.50;6.70;;;21.50;99.90;;;;;;8246976;28;20423;-79
2023/07/10 20:07:33;;;;;;;8.48;6.50;;;21.50;99.90;;;;;;8240719;28;20018;-80
2023/07/10 20:11:33;;;;;;;8.07;6.70;;;21.40;99.90;;;;;;8234379;28;20089;-80
2023/07/10 20:15:34;;;;;;;9.13;6.72;;;21.10;99.90;;;;;;8255931;28;20554;-79
2023/07/10 20:19:34;;;;;;;8.40;6.35;;;20.80;99.90;;;;;;8234533;28;20049;-80
2023/07/10 20:23:35;;;;;;;10.88;7.60;;;20.60;99.90;;;;;;8241751;28;20018;-80
2023/07/10 20:27:35;;;;;;;8.27;7.00;;;20.50;99.90;;;;;;8242635;28;20028;-79
2023/07/10 20:31:36;;;;;;;9.23;7.15;;;20.40;99.90;;;;;;8242209;28;20026;-79
2023/07/10 20:35:36;;;;;;;7.85;6.95;;;20.40;99.90;;;;;;8252106;28;20034;-81
2023/07/10 20:39:37;;;;;;;8.23;6.53;;;20.30;99.90;;;;;;8230427;28;20022;-78
2023/07/10 20:43:38;;;;;;;9.13;7.15;;;20.40;99.90;;;;;;8232783;28;20370;-79
2023/07/10 20:47:39;;;;;;;9.55;7.13;;;20.30;99.90;;;;;;8221198;28;20047;-79
2023/07/10 20:51:39;;;;;;;8.27;7.15;;;20.10;99.90;;;;;;8248319;28;20022;-80
2023/07/10 20:55:42;;;;;;;9.60;7.20;;;19.90;99.90;;;;;;8245220;28;20030;-79
2023/07/10 20:59:43;;;;;;;10.50;6.82;;;19.70;99.90;;;;;;8239903;28;20033;-79
2023/07/10 21:03:44;;;;;;;11.95;7.63;;;19.70;99.90;;;;;;8255196;28;20130;-79
2023/07/10 21:07:45;;;;;;;11.68;8.05;;;19.80;99.90;;;;;;8246826;28;20058;-80
2023/07/10 21:11:45;;;;;;;10.68;7.10;;;19.60;99.90;;;;;;8249386;28;20117;-79
2023/07/10 21:15:46;;;;;;;9.02;7.65;;;19.40;99.90;;;;;;8242730;28;20042;-79
2023/07/10 21:19:47;;;;;;;10.80;8.13;;;19.20;99.90;;;;;;8244471;28;20023;-79
2023/07/10 21:23:48;;;;;;;9.80;7.97;;;19.10;99.90;;;;;;8251471;28;20504;-80
2023/07/10 21:27:49;;;;;;;10.32;7.30;;;19.10;99.90;;;;;;8235155;28;20041;-81
2023/07/10 21:31:50;;;;;;;9.88;7.53;;;19.00;99.90;;;;;;8234232;28;20022;-80
2023/07/10 21:35:55;;;;;;;9.30;7.05;;;18.80;99.90;;;;;;8225653;28;20077;-80
2023/07/10 21:39:55;;;;;;;8.77;7.18;;;18.80;99.90;;;;;;8238698;28;20030;-80
2023/07/10 21:43:56;;;;;;;9.45;7.53;;;18.90;99.90;;;;;;8251929;28;20026;-80
2023/07/10 21:47:59;;;;;;;9.85;7.78;;;19.00;99.90;;;;;;8236094;28;20400;-79
2023/07/10 21:51:59;;;;;;;10.23;7.03;;;18.80;99.90;;;;;;8242432;28;20030;-79
2023/07/10 21:56:04;;;;;;;11.48;7.05;;;18.90;99.90;;;;;;8259002;28;20124;-79
2023/07/10 22:00:08;;;;;;;12.18;8.20;;;18.70;99.90;;;;;;8253096;28;20460;-80
2023/07/10 22:04:10;;;;;;;11.27;8.40;;;18.40;99.90;;;;;;8255654;28;20018;-80
2023/07/10 22:08:10;;;;;;;12.63;8.48;;;18.30;99.90;;;;;;8249666;28;20022;-79